Time;durP1;ratioP1;P1;durP2;ratioP2;P2;SDS_P1;SDS_P2;PMS_P1;PMS_P2;Temp;Humidity;BMP_temperature;BMP_pressure;BME280_temperature;BME280_humidity;BME280_pressure;Samples;Min_cycle;Max_cycle;Signal;HPM_P1;HPM_P2
2024/02/25 00:02:31;;;;;;;13.00;7.80;;;;;;;;;;103833;1291;545419;-70
2024/02/25 00:06:08;;;;;;;14.00;7.80;;;;;;;;;;103795;1290;545244;-71
2024/02/25 00:09:46;;;;;;;14.60;7.60;;;;;;;;;;103678;1292;545894;-71
2024/02/25 00:13:21;;;;;;;16.00;8.20;;;;;;;;;;103611;1289;545688;-70
2024/02/25 00:17:00;;;;;;;17.00;9.20;;;;;;;;;;103601;1291;544596;-71
2024/02/25 00:20:39;;;;;;;18.50;9.00;;;;;;;;;;103787;1291;544763;-70
2024/02/25 00:24:17;;;;;;;15.60;8.80;;;;;;;;;;103797;1295;545054;-70
2024/02/25 00:27:53;;;;;;;17.30;9.20;;;;;;;;;;103822;1289;545495;-70
2024/02/25 00:31:31;;;;;;;18.40;9.20;;;;;;;;;;103676;1294;545922;-71
2024/02/25 00:35:09;;;;;;;16.70;9.30;;;;;;;;;;103755;1288;545075;-70
2024/02/25 00:38:45;;;;;;;17.40;8.60;;;;;;;;;;103766;1289;545086;-70
2024/02/25 00:42:24;;;;;;;17.90;10.10;;;;;;;;;;103790;1295;544743;-70
2024/02/25 00:46:00;;;;;;;22.40;12.40;;;;;;;;;;103637;1291;545893;-70
2024/02/25 00:49:40;;;;;;;26.00;15.10;;;;;;;;;;103843;1289;544777;-70
2024/02/25 00:53:16;;;;;;;22.50;11.60;;;;;;;;;;104753;1280;545285;-71
2024/02/25 00:56:54;;;;;;;21.10;10.80;;;;;;;;;;103908;1293;544927;-71
2024/02/25 01:00:30;;;;;;;20.30;10.80;;;;;;;;;;103782;1292;544906;-70
2024/02/25 01:04:08;;;;;;;20.40;10.60;;;;;;;;;;103800;1290;544959;-71
2024/02/25 01:07:41;;;;;;;18.90;10.30;;;;;;;;;;104035;1285;545860;-70
2024/02/25 01:11:29;;;;;;;21.10;10.20;;;;;;;;;;103726;1295;544829;-72
2024/02/25 01:15:00;;;;;;;16.70;9.50;;;;;;;;;;103726;1294;544916;-71
2024/02/25 01:18:38;;;;;;;16.40;8.60;;;;;;;;;;104659;1283;545720;-71
2024/02/25 01:22:15;;;;;;;15.20;8.20;;;;;;;;;;103718;1292;544836;-71
2024/02/25 01:25:53;;;;;;;13.90;7.50;;;;;;;;;;103870;1289;545558;-70
2024/02/25 01:29:30;;;;;;;14.20;7.60;;;;;;;;;;103703;1289;544863;-70
2024/02/25 01:33:08;;;;;;;14.40;7.60;;;;;;;;;;103814;1292;544830;-70
2024/02/25 01:36:51;;;;;;;14.40;9.10;;;;;;;;;;103637;1292;547963;-71
2024/02/25 01:40:23;;;;;;;19.70;10.80;;;;;;;;;;103824;1292;545418;-71
2024/02/25 01:44:00;;;;;;;16.60;9.00;;;;;;;;;;103756;1290;545477;-71
2024/02/25 01:47:38;;;;;;;12.30;7.20;;;;;;;;;;103882;1289;545658;-71
2024/02/25 01:51:11;;;;;;;11.00;6.20;;;;;;;;;;103718;1289;544845;-69
2024/02/25 01:54:53;;;;;;;13.60;7.10;;;;;;;;;;103783;1289;545576;-70
2024/02/25 01:58:29;;;;;;;12.70;6.80;;;;;;;;;;103632;1291;545828;-71
2024/02/25 02:02:13;;;;;;;12.70;6.70;;;;;;;;;;103831;1295;546072;-70
2024/02/25 02:05:45;;;;;;;13.80;7.00;;;;;;;;;;103554;1291;544801;-72
2024/02/25 02:09:23;;;;;;;13.60;7.00;;;;;;;;;;103808;1296;544840;-72
2024/02/25 02:13:05;;;;;;;13.20;7.00;;;;;;;;;;103652;1289;545517;-71
2024/02/25 02:16:38;;;;;;;12.60;6.80;;;;;;;;;;103777;1289;544941;-70
2024/02/25 02:20:20;;;;;;;13.50;6.30;;;;;;;;;;103764;1289;544862;-71
2024/02/25 02:23:53;;;;;;;20.00;9.70;;;;;;;;;;103842;1289;545625;-71
2024/02/25 02:27:29;;;;;;;17.50;10.30;;;;;;;;;;103614;1291;545344;-71
2024/02/25 02:31:07;;;;;;;19.70;10.70;;;;;;;;;;103837;1292;544734;-71
2024/02/25 02:34:42;;;;;;;18.60;10.50;;;;;;;;;;103884;1290;544758;-71
2024/02/25 02:38:22;;;;;;;18.00;11.30;;;;;;;;;;103824;1289;545090;-72
2024/02/25 02:42:00;;;;;;;20.70;12.40;;;;;;;;;;103644;1295;545330;-71
2024/02/25 02:45:37;;;;;;;18.30;9.90;;;;;;;;;;103700;1295;544987;-71
2024/02/25 02:49:14;;;;;;;18.10;11.40;;;;;;;;;;103748;1289;545096;-71
2024/02/25 02:52:57;;;;;;;19.70;12.10;;;;;;;;;;103543;1295;547937;-70
2024/02/25 02:56:30;;;;;;;16.80;11.10;;;;;;;;;;103689;1290;544962;-71
2024/02/25 03:00:07;;;;;;;17.80;11.30;;;;;;;;;;103788;1294;544969;-70
2024/02/25 03:03:44;;;;;;;18.90;11.10;;;;;;;;;;103690;1290;546040;-70
2024/02/25 03:07:21;;;;;;;17.20;10.70;;;;;;;;;;103742;1289;545034;-70
2024/02/25 03:10:59;;;;;;;14.80;9.60;;;;;;;;;;104470;1286;544701;-70
2024/02/25 03:14:32;;;;;;;14.60;9.50;;;;;;;;;;103459;1295;545443;-71
2024/02/25 03:18:14;;;;;;;15.40;9.20;;;;;;;;;;103473;1291;545000;-71
2024/02/25 03:21:52;;;;;;;13.90;8.80;;;;;;;;;;103774;1292;545730;-71
2024/02/25 03:25:29;;;;;;;15.30;9.10;;;;;;;;;;103692;1292;544739;-71
2024/02/25 03:29:07;;;;;;;17.00;10.60;;;;;;;;;;103795;1289;545566;-71
2024/02/25 03:32:43;;;;;;;18.30;11.40;;;;;;;;;;103841;1291;545070;-71
2024/02/25 03:36:21;;;;;;;15.60;10.90;;;;;;;;;;103841;1289;545881;-70
2024/02/25 03:39:59;;;;;;;15.10;10.20;;;;;;;;;;103643;1292;545150;-71
2024/02/25 03:43:36;;;;;;;17.40;11.20;;;;;;;;;;103923;1289;545533;-70
2024/02/25 03:47:13;;;;;;;18.20;12.90;;;;;;;;;;103437;1291;544961;-70
2024/02/25 03:50:51;;;;;;;21.50;16.00;;;;;;;;;;103686;1295;545264;-71
2024/02/25 03:54:28;;;;;;;18.60;13.40;;;;;;;;;;103759;1290;545480;-72
2024/02/25 03:58:06;;;;;;;17.60;10.40;;;;;;;;;;103762;1289;545987;-71
2024/02/25 04:01:43;;;;;;;17.10;10.70;;;;;;;;;;103792;1292;544769;-70
2024/02/25 04:05:21;;;;;;;16.60;10.50;;;;;;;;;;103935;1289;544893;-70
2024/02/25 04:08:58;;;;;;;16.30;10.60;;;;;;;;;;103715;1289;544844;-70
2024/02/25 04:12:36;;;;;;;16.60;11.20;;;;;;;;;;103559;1292;545915;-70
2024/02/25 04:16:13;;;;;;;16.90;11.10;;;;;;;;;;103823;1289;544958;-70
2024/02/25 04:19:51;;;;;;;16.40;10.60;;;;;;;;;;103694;1291;544859;-71
2024/02/25 04:23:28;;;;;;;17.30;10.10;;;;;;;;;;103697;1290;544720;-70
2024/02/25 04:27:05;;;;;;;15.30;9.50;;;;;;;;;;103646;1289;544887;-70
2024/02/25 04:30:42;;;;;;;17.30;11.00;;;;;;;;;;103856;1292;544870;-70
2024/02/25 04:34:20;;;;;;;18.50;12.40;;;;;;;;;;103808;1290;545943;-71
2024/02/25 04:38:01;;;;;;;18.60;12.20;;;;;;;;;;103747;1289;544954;-71
2024/02/25 04:41:35;;;;;;;19.60;12.50;;;;;;;;;;103876;1292;545438;-70
2024/02/25 04:45:12;;;;;;;18.30;11.80;;;;;;;;;;103804;1289;545267;-70
2024/02/25 04:48:51;;;;;;;17.10;10.90;;;;;;;;;;103873;1290;545038;-70
2024/02/25 04:52:27;;;;;;;15.10;10.40;;;;;;;;;;103918;1286;544912;-70
2024/02/25 04:56:05;;;;;;;16.10;9.60;;;;;;;;;;103558;1291;544736;-71
2024/02/25 04:59:42;;;;;;;13.50;8.20;;;;;;;;;;103849;1292;544860;-71
2024/02/25 05:03:21;;;;;;;17.10;9.60;;;;;;;;;;103795;1289;545249;-70
2024/02/25 05:06:57;;;;;;;17.00;10.30;;;;;;;;;;103776;1289;544809;-71
2024/02/25 05:10:37;;;;;;;17.90;11.40;;;;;;;;;;103771;1302;545566;-70
2024/02/25 05:14:12;;;;;;;18.00;11.50;;;;;;;;;;103836;1289;545651;-71
2024/02/25 05:17:50;;;;;;;18.00;10.70;;;;;;;;;;103715;1289;545223;-70
2024/02/25 05:21:29;;;;;;;16.60;11.10;;;;;;;;;;103766;1292;544811;-71
2024/02/25 05:25:05;;;;;;;16.90;10.40;;;;;;;;;;103806;1289;545004;-70
2024/02/25 05:28:42;;;;;;;15.70;10.10;;;;;;;;;;103642;1293;544790;-70
2024/02/25 05:32:20;;;;;;;15.70;10.40;;;;;;;;;;103794;1295;546140;-72
2024/02/25 05:35:56;;;;;;;14.90;9.00;;;;;;;;;;103632;1291;545720;-71
2024/02/25 05:39:35;;;;;;;13.60;8.80;;;;;;;;;;103760;1297;544977;-70
2024/02/25 05:43:12;;;;;;;13.20;8.70;;;;;;;;;;103582;1289;545455;-71
2024/02/25 05:46:50;;;;;;;15.10;10.20;;;;;;;;;;104009;1289;544894;-70
2024/02/25 05:50:27;;;;;;;16.60;11.20;;;;;;;;;;103763;1292;544790;-72
2024/02/25 05:54:05;;;;;;;19.50;12.40;;;;;;;;;;103761;1292;544993;-71
2024/02/25 05:57:42;;;;;;;18.90;12.80;;;;;;;;;;103461;1291;545073;-70
2024/02/25 06:01:21;;;;;;;20.70;13.50;;;;;;;;;;103736;1290;544815;-70
2024/02/25 06:04:58;;;;;;;17.40;12.10;;;;;;;;;;103852;1286;544965;-70
2024/02/25 06:08:35;;;;;;;19.30;13.30;;;;;;;;;;104038;1291;545741;-71
2024/02/25 06:12:11;;;;;;;18.70;12.20;;;;;;;;;;103656;1292;544744;-71
2024/02/25 06:15:50;;;;;;;19.00;12.40;;;;;;;;;;103899;1289;546501;-70
2024/02/25 06:19:26;;;;;;;19.50;12.40;;;;;;;;;;103656;1303;544987;-71
2024/02/25 06:23:04;;;;;;;20.70;13.50;;;;;;;;;;103783;1289;545104;-71
2024/02/25 06:26:45;;;;;;;21.10;15.40;;;;;;;;;;103621;1291;544929;-70
2024/02/25 06:30:20;;;;;;;19.10;12.10;;;;;;;;;;103855;1292;545521;-71
2024/02/25 06:33:56;;;;;;;24.70;15.90;;;;;;;;;;103765;1290;544804;-72
2024/02/25 06:37:35;;;;;;;24.20;15.00;;;;;;;;;;103803;1289;545321;-71
2024/02/25 06:41:24;;;;;;;22.20;14.80;;;;;;;;;;103604;1292;545670;-72
2024/02/25 06:44:50;;;;;;;22.40;15.60;;;;;;;;;;104034;1288;545522;-71
2024/02/25 06:48:26;;;;;;;23.00;15.80;;;;;;;;;;103779;1291;544762;-71
2024/02/25 06:52:05;;;;;;;23.40;15.00;;;;;;;;;;103842;1289;544836;-71
2024/02/25 06:55:41;;;;;;;21.20;13.90;;;;;;;;;;103679;1291;544799;-71
2024/02/25 06:59:19;;;;;;;20.70;14.40;;;;;;;;;;103759;1292;544859;-71
2024/02/25 07:02:57;;;;;;;23.80;15.30;;;;;;;;;;103712;1291;544593;-71
2024/02/25 07:06:35;;;;;;;28.70;18.50;;;;;;;;;;103858;1289;544824;-71
2024/02/25 07:10:11;;;;;;;26.00;17.80;;;;;;;;;;103675;1291;544964;-71
2024/02/25 07:13:49;;;;;;;27.90;18.50;;;;;;;;;;103847;1289;544779;-71
2024/02/25 07:17:26;;;;;;;31.20;20.70;;;;;;;;;;103607;1291;544975;-71
2024/02/25 07:21:03;;;;;;;29.20;19.40;;;;;;;;;;103794;1289;545504;-71
2024/02/25 07:24:42;;;;;;;30.30;19.40;;;;;;;;;;103515;1292;545453;-71
2024/02/25 07:28:19;;;;;;;27.10;16.30;;;;;;;;;;103846;1292;544984;-71
2024/02/25 07:31:52;;;;;;;19.10;11.10;;;;;;;;;;103837;1289;545051;-71
2024/02/25 07:35:33;;;;;;;19.50;11.50;;;;;;;;;;103796;1289;544926;-71
2024/02/25 07:39:11;;;;;;;25.40;15.90;;;;;;;;;;103579;1294;545439;-72
2024/02/25 07:42:49;;;;;;;22.30;13.90;;;;;;;;;;103690;1290;544743;-72
2024/02/25 07:46:27;;;;;;;23.00;14.30;;;;;;;;;;103777;1289;545679;-72
2024/02/25 07:50:04;;;;;;;15.80;10.60;;;;;;;;;;103745;1291;545899;-71
2024/02/25 07:53:37;;;;;;;18.50;11.10;;;;;;;;;;103821;1290;545487;-72
2024/02/25 07:57:26;;;;;;;17.20;10.90;;;;;;;;;;103558;1290;547938;-72
2024/02/25 08:00:56;;;;;;;12.90;7.50;;;;;;;;;;103547;1291;545248;-72
2024/02/25 08:04:34;;;;;;;14.20;8.00;;;;;;;;;;103693;1292;544816;-72
2024/02/25 08:08:10;;;;;;;12.20;7.40;;;;;;;;;;103740;1291;544803;-73
2024/02/25 08:11:48;;;;;;;12.80;6.80;;;;;;;;;;103692;1289;545002;-72
2024/02/25 08:15:25;;;;;;;18.50;11.30;;;;;;;;;;103687;1289;544964;-72
2024/02/25 08:19:03;;;;;;;27.50;17.20;;;;;;;;;;103697;1289;545160;-71
2024/02/25 08:22:40;;;;;;;24.00;13.90;;;;;;;;;;104018;1289;544908;-73
2024/02/25 08:26:18;;;;;;;16.90;10.60;;;;;;;;;;103884;1288;545147;-72
2024/02/25 08:29:55;;;;;;;17.70;11.50;;;;;;;;;;103727;1289;545346;-72
2024/02/25 08:33:33;;;;;;;22.90;13.40;;;;;;;;;;103786;1292;545224;-72
2024/02/25 08:37:11;;;;;;;16.60;9.70;;;;;;;;;;103728;1289;545673;-72
2024/02/25 08:40:48;;;;;;;17.90;10.20;;;;;;;;;;103896;1291;546031;-73
2024/02/25 08:44:25;;;;;;;18.40;10.20;;;;;;;;;;103784;1289;545512;-72
2024/02/25 08:48:02;;;;;;;18.40;10.00;;;;;;;;;;103686;1292;544950;-73
2024/02/25 08:51:40;;;;;;;14.80;7.40;;;;;;;;;;103572;1292;545622;-73
2024/02/25 08:55:17;;;;;;;11.60;5.00;;;;;;;;;;103790;1295;546155;-72
2024/02/25 08:58:55;;;;;;;10.70;5.60;;;;;;;;;;103566;1291;546152;-71
2024/02/25 09:02:33;;;;;;;10.80;5.50;;;;;;;;;;103663;1292;545011;-72
2024/02/25 09:06:10;;;;;;;13.00;6.40;;;;;;;;;;103994;1291;545075;-71
2024/02/25 09:09:43;;;;;;;11.00;4.90;;;;;;;;;;103627;1290;546007;-73
2024/02/25 09:13:25;;;;;;;11.40;5.30;;;;;;;;;;103665;1292;545199;-71
2024/02/25 09:17:03;;;;;;;13.20;6.30;;;;;;;;;;103684;1290;544862;-73
2024/02/25 09:20:40;;;;;;;9.60;5.00;;;;;;;;;;103626;1291;545732;-71
2024/02/25 09:24:14;;;;;;;9.30;5.30;;;;;;;;;;103793;1293;545295;-71
2024/02/25 09:27:54;;;;;;;11.40;5.40;;;;;;;;;;103716;1289;545494;-72
2024/02/25 09:31:32;;;;;;;11.50;5.30;;;;;;;;;;103691;1291;544830;-71
2024/02/25 09:35:13;;;;;;;10.10;4.80;;;;;;;;;;104164;1286;544780;-71
2024/02/25 09:38:47;;;;;;;11.10;5.00;;;;;;;;;;103691;1289;545187;-72
2024/02/25 09:42:25;;;;;;;11.90;5.60;;;;;;;;;;103736;1290;545020;-71
2024/02/25 09:46:03;;;;;;;12.90;6.50;;;;;;;;;;103699;1291;545057;-74
2024/02/25 09:49:40;;;;;;;9.90;4.80;;;;;;;;;;103649;1293;545066;-75
2024/02/25 09:53:20;;;;;;;10.90;5.10;;;;;;;;;;103745;1295;546028;-71
2024/02/25 09:56:54;;;;;;;11.60;5.20;;;;;;;;;;103584;1295;544807;-72
2024/02/25 10:00:32;;;;;;;13.50;5.90;;;;;;;;;;103890;1288;544848;-72
2024/02/25 10:04:10;;;;;;;12.90;6.20;;;;;;;;;;103721;1293;544743;-73
2024/02/25 10:08:00;;;;;;;11.90;6.80;;;;;;;;;;103797;1289;544845;-71
2024/02/25 10:11:25;;;;;;;11.10;6.00;;;;;;;;;;103673;1291;545228;-74
2024/02/25 10:15:02;;;;;;;11.80;5.70;;;;;;;;;;103705;1297;544855;-75
2024/02/25 10:18:40;;;;;;;12.60;6.60;;;;;;;;;;103731;1290;544949;-71
2024/02/25 10:22:14;;;;;;;12.80;6.60;;;;;;;;;;103733;1293;545333;-73
2024/02/25 10:25:50;;;;;;;11.00;6.00;;;;;;;;;;103737;1289;545656;-72
2024/02/25 10:29:32;;;;;;;10.50;6.00;;;;;;;;;;103778;1289;546026;-73
2024/02/25 10:33:13;;;;;;;12.50;7.30;;;;;;;;;;103695;1291;545380;-73
2024/02/25 10:36:47;;;;;;;11.90;6.90;;;;;;;;;;103905;1289;544789;-73
2024/02/25 10:40:25;;;;;;;11.30;5.70;;;;;;;;;;103759;1291;545413;-72
2024/02/25 10:44:02;;;;;;;9.90;5.70;;;;;;;;;;103866;1295;546127;-71
2024/02/25 10:47:59;;;;;;;11.30;6.30;;;;;;;;;;103744;1295;547895;-73
2024/02/25 10:51:18;;;;;;;10.70;6.70;;;;;;;;;;103783;1292;545685;-71
2024/02/25 10:54:57;;;;;;;12.00;6.40;;;;;;;;;;103622;1297;544887;-73
2024/02/25 10:58:33;;;;;;;14.50;7.10;;;;;;;;;;103823;1292;544968;-72
2024/02/25 11:02:10;;;;;;;12.30;6.20;;;;;;;;;;103733;1295;545266;-71
2024/02/25 11:05:47;;;;;;;10.10;5.50;;;;;;;;;;103917;1292;545514;-73
2024/02/25 11:09:23;;;;;;;10.70;5.50;;;;;;;;;;103846;1290;544747;-71
2024/02/25 11:13:01;;;;;;;10.80;6.20;;;;;;;;;;103702;1291;545809;-73
2024/02/25 11:16:42;;;;;;;11.80;5.90;;;;;;;;;;103722;1291;544795;-73
2024/02/25 11:20:22;;;;;;;10.40;6.20;;;;;;;;;;103848;1292;544939;-71
2024/02/25 11:23:50;;;;;;;10.50;5.60;;;;;;;;;;104944;1286;545248;-70
2024/02/25 11:27:50;;;;;;;10.90;6.30;;;;;;;;;;103804;1290;545814;-73
2024/02/25 11:31:09;;;;;;;12.40;6.60;;;;;;;;;;103860;1289;545984;-73
2024/02/25 11:34:46;;;;;;;10.60;6.00;;;;;;;;;;103836;1287;545954;-71
2024/02/25 11:38:29;;;;;;;11.10;7.00;;;;;;;;;;103671;1292;545080;-73
2024/02/25 11:42:05;;;;;;;10.10;6.60;;;;;;;;;;103606;1291;544763;-73
2024/02/25 11:45:38;;;;;;;11.30;6.80;;;;;;;;;;103738;1295;545153;-71
2024/02/25 11:49:16;;;;;;;12.00;6.40;;;;;;;;;;103780;1295;545219;-71
2024/02/25 11:53:02;;;;;;;11.80;7.10;;;;;;;;;;103701;1290;545528;-71
2024/02/25 11:56:32;;;;;;;12.60;7.00;;;;;;;;;;103808;1302;545865;-72
2024/02/25 12:00:09;;;;;;;11.80;6.50;;;;;;;;;;103698;1291;544774;-71
2024/02/25 12:03:46;;;;;;;12.10;6.90;;;;;;;;;;103765;1291;544721;-72
2024/02/25 12:07:23;;;;;;;10.30;5.90;;;;;;;;;;103705;1291;544804;-71
2024/02/25 12:11:20;;;;;;;11.80;5.90;;;;;;;;;;103849;1292;547798;-75
2024/02/25 12:14:38;;;;;;;11.10;6.50;;;;;;;;;;104332;1283;546115;-72
2024/02/25 12:18:16;;;;;;;10.30;6.80;;;;;;;;;;103660;1291;546216;-73
2024/02/25 12:21:54;;;;;;;10.10;6.50;;;;;;;;;;103663;1291;545648;-73
2024/02/25 12:25:31;;;;;;;13.30;7.30;;;;;;;;;;103687;1297;544825;-71
2024/02/25 12:29:08;;;;;;;14.90;8.00;;;;;;;;;;103744;1292;545236;-72
2024/02/25 12:32:45;;;;;;;13.80;8.50;;;;;;;;;;103737;1291;545514;-72
2024/02/25 12:36:23;;;;;;;13.80;8.80;;;;;;;;;;103749;1292;544985;-72
2024/02/25 12:40:04;;;;;;;16.10;8.60;;;;;;;;;;103972;1295;545064;-73
2024/02/25 12:43:38;;;;;;;12.50;8.40;;;;;;;;;;103636;1291;545435;-73
2024/02/25 12:47:15;;;;;;;14.10;8.60;;;;;;;;;;104594;1283;545471;-72
2024/02/25 12:50:52;;;;;;;13.90;8.30;;;;;;;;;;103696;1290;544838;-73
2024/02/25 12:54:27;;;;;;;16.00;9.90;;;;;;;;;;103619;1289;545021;-73
2024/02/25 12:58:07;;;;;;;11.30;7.50;;;;;;;;;;103664;1295;544774;-72
2024/02/25 13:01:45;;;;;;;11.30;7.30;;;;;;;;;;103846;1290;544959;-73
2024/02/25 13:05:23;;;;;;;13.50;7.90;;;;;;;;;;104155;1286;545693;-73
2024/02/25 13:09:01;;;;;;;13.40;8.10;;;;;;;;;;103887;1290;545144;-71
2024/02/25 13:12:38;;;;;;;11.10;7.40;;;;;;;;;;103623;1295;545489;-71
2024/02/25 13:16:15;;;;;;;12.80;7.80;;;;;;;;;;103920;1292;545151;-73
2024/02/25 13:19:53;;;;;;;12.30;8.20;;;;;;;;;;103731;1291;545141;-72
2024/02/25 13:23:30;;;;;;;12.70;8.60;;;;;;;;;;103863;1292;545144;-72
2024/02/25 13:27:11;;;;;;;13.40;8.80;;;;;;;;;;103665;1295;545454;-72
2024/02/25 13:30:45;;;;;;;13.70;9.20;;;;;;;;;;103785;1289;545006;-72
2024/02/25 13:34:22;;;;;;;17.00;10.00;;;;;;;;;;103620;1291;545078;-73
2024/02/25 13:38:19;;;;;;;14.90;9.20;;;;;;;;;;103802;1305;548438;-73
2024/02/25 13:41:36;;;;;;;12.60;8.30;;;;;;;;;;103765;1292;546133;-72
2024/02/25 13:45:10;;;;;;;33.80;29.60;;;;;;;;;;103530;1288;545732;-69
2024/02/25 13:48:52;;;;;;;14.10;10.00;;;;;;;;;;103830;1288;545818;-72
2024/02/25 13:52:30;;;;;;;13.90;9.10;;;;;;;;;;103972;1289;544950;-73
2024/02/25 13:56:07;;;;;;;13.50;8.20;;;;;;;;;;103790;1289;544998;-72
2024/02/25 13:59:45;;;;;;;13.60;9.00;;;;;;;;;;103802;1289;544839;-71
2024/02/25 14:03:22;;;;;;;13.40;9.10;;;;;;;;;;104018;1287;545507;-72
2024/02/25 14:06:56;;;;;;;13.20;8.80;;;;;;;;;;103570;1291;544984;-70
2024/02/25 14:10:36;;;;;;;14.60;9.30;;;;;;;;;;103761;1289;545606;-71
2024/02/25 14:14:17;;;;;;;15.30;9.00;;;;;;;;;;103746;1295;544873;-72
2024/02/25 14:17:55;;;;;;;13.50;8.60;;;;;;;;;;103789;1292;544798;-72
2024/02/25 14:21:33;;;;;;;16.20;9.30;;;;;;;;;;104492;1289;544840;-71
2024/02/25 14:25:03;;;;;;;14.80;9.40;;;;;;;;;;103839;1289;545749;-70
2024/02/25 14:28:45;;;;;;;13.00;8.70;;;;;;;;;;103795;1289;545253;-72
2024/02/25 14:32:21;;;;;;;14.70;9.10;;;;;;;;;;103903;1289;545433;-72
2024/02/25 14:36:00;;;;;;;15.10;10.00;;;;;;;;;;103807;1289;544792;-74
2024/02/25 14:39:36;;;;;;;12.00;8.40;;;;;;;;;;103768;1294;544999;-73
2024/02/25 14:43:14;;;;;;;12.70;8.60;;;;;;;;;;103768;1291;544909;-73
2024/02/25 14:46:51;;;;;;;16.00;9.70;;;;;;;;;;103797;1292;545783;-74
2024/02/25 14:50:29;;;;;;;15.20;9.40;;;;;;;;;;103783;1289;544737;-72
2024/02/25 14:54:06;;;;;;;14.30;9.10;;;;;;;;;;104007;1286;544845;-71
2024/02/25 14:57:44;;;;;;;22.60;16.40;;;;;;;;;;103824;1293;545879;-70
2024/02/25 15:01:21;;;;;;;14.90;9.20;;;;;;;;;;103630;1291;544833;-72
2024/02/25 15:04:59;;;;;;;16.50;8.90;;;;;;;;;;103764;1289;545565;-71
2024/02/25 15:08:37;;;;;;;13.10;7.40;;;;;;;;;;103722;1295;545269;-71
2024/02/25 15:12:15;;;;;;;18.10;14.80;;;;;;;;;;103822;1292;544762;-71
2024/02/25 15:15:51;;;;;;;10.70;7.10;;;;;;;;;;103660;1290;545157;-73
2024/02/25 15:19:29;;;;;;;11.90;7.10;;;;;;;;;;103798;1296;544930;-72
2024/02/25 15:23:05;;;;;;;12.00;6.60;;;;;;;;;;103985;1293;545657;-72
2024/02/25 15:26:44;;;;;;;13.10;7.00;;;;;;;;;;103902;1292;544830;-71
2024/02/25 15:30:22;;;;;;;13.20;7.80;;;;;;;;;;103772;1291;545475;-71
2024/02/25 15:33:59;;;;;;;14.70;9.20;;;;;;;;;;103660;1291;544911;-72
2024/02/25 15:37:37;;;;;;;15.60;9.80;;;;;;;;;;103677;1292;545049;-73
2024/02/25 15:41:14;;;;;;;16.40;9.90;;;;;;;;;;103748;1289;544973;-73
2024/02/25 15:44:51;;;;;;;17.90;10.30;;;;;;;;;;103750;1289;545010;-72
2024/02/25 15:48:29;;;;;;;15.80;9.50;;;;;;;;;;103804;1294;545341;-73
2024/02/25 15:52:06;;;;;;;17.90;10.00;;;;;;;;;;103711;1291;545516;-72
2024/02/25 15:55:44;;;;;;;17.90;11.20;;;;;;;;;;103784;1296;545027;-72
2024/02/25 15:59:20;;;;;;;16.80;9.90;;;;;;;;;;103723;1296;545365;-72
2024/02/25 16:02:58;;;;;;;17.20;10.40;;;;;;;;;;103706;1291;545263;-72
2024/02/25 16:06:31;;;;;;;15.40;9.10;;;;;;;;;;103773;1288;544704;-71
2024/02/25 16:10:09;;;;;;;16.00;9.20;;;;;;;;;;103968;1289;545432;-72
2024/02/25 16:13:50;;;;;;;16.80;9.70;;;;;;;;;;103643;1291;544904;-72
2024/02/25 16:17:30;;;;;;;17.40;10.80;;;;;;;;;;103823;1290;545534;-71
2024/02/25 16:21:05;;;;;;;20.00;11.90;;;;;;;;;;103679;1291;544946;-71
2024/02/25 16:24:43;;;;;;;16.90;10.20;;;;;;;;;;103774;1289;545317;-71
2024/02/25 16:28:21;;;;;;;14.90;9.00;;;;;;;;;;103635;1297;544802;-71
2024/02/25 16:31:58;;;;;;;14.80;8.40;;;;;;;;;;103902;1292;545334;-71
2024/02/25 16:35:39;;;;;;;15.50;9.80;;;;;;;;;;103619;1291;545498;-71
2024/02/25 16:39:15;;;;;;;18.70;10.80;;;;;;;;;;104158;1288;544750;-71
2024/02/25 16:42:50;;;;;;;17.70;10.30;;;;;;;;;;103626;1294;545391;-72
2024/02/25 16:46:28;;;;;;;17.30;10.30;;;;;;;;;;103762;1289;544972;-71
2024/02/25 16:50:05;;;;;;;14.80;9.60;;;;;;;;;;103640;1295;545069;-72
2024/02/25 16:53:43;;;;;;;17.40;11.20;;;;;;;;;;103887;1289;545222;-72
2024/02/25 16:57:19;;;;;;;18.20;10.90;;;;;;;;;;103555;1291;545631;-72
2024/02/25 17:00:58;;;;;;;17.40;10.40;;;;;;;;;;103818;1302;544933;-72
2024/02/25 17:04:35;;;;;;;17.00;10.40;;;;;;;;;;104072;1286;544786;-72
2024/02/25 17:08:12;;;;;;;17.50;10.50;;;;;;;;;;103732;1289;545048;-72
2024/02/25 17:11:50;;;;;;;23.60;13.60;;;;;;;;;;103646;1293;545498;-72
2024/02/25 17:15:28;;;;;;;20.70;12.90;;;;;;;;;;103811;1289;545802;-72
2024/02/25 17:19:05;;;;;;;24.50;14.60;;;;;;;;;;103715;1292;545551;-72
2024/02/25 17:22:46;;;;;;;32.50;21.70;;;;;;;;;;103853;1294;544876;-72
2024/02/25 17:26:20;;;;;;;43.50;26.90;;;;;;;;;;103686;1292;544947;-72
2024/02/25 17:29:58;;;;;;;36.30;22.80;;;;;;;;;;103751;1289;545921;-72
2024/02/25 17:33:34;;;;;;;35.20;22.30;;;;;;;;;;103712;1290;544849;-72
2024/02/25 17:37:14;;;;;;;30.00;19.40;;;;;;;;;;103688;1292;544990;-72
2024/02/25 17:40:50;;;;;;;36.50;23.50;;;;;;;;;;103747;1305;545046;-72
2024/02/25 17:44:28;;;;;;;32.90;20.40;;;;;;;;;;103820;1289;544961;-72
2024/02/25 17:48:05;;;;;;;22.90;15.70;;;;;;;;;;103833;1289;544868;-72
2024/02/25 17:51:43;;;;;;;20.20;12.10;;;;;;;;;;103762;1292;544778;-71
2024/02/25 17:55:20;;;;;;;15.90;9.90;;;;;;;;;;103718;1292;545735;-71
2024/02/25 17:58:53;;;;;;;15.70;9.70;;;;;;;;;;103789;1289;544841;-71
2024/02/25 18:02:32;;;;;;;19.70;11.90;;;;;;;;;;103741;1295;544996;-71
2024/02/25 18:06:08;;;;;;;20.80;12.10;;;;;;;;;;103776;1290;544986;-71
2024/02/25 18:09:50;;;;;;;24.00;15.30;;;;;;;;;;103769;1292;545887;-71
2024/02/25 18:13:26;;;;;;;22.80;13.90;;;;;;;;;;103872;1289;545051;-72
2024/02/25 18:17:04;;;;;;;35.00;21.30;;;;;;;;;;103793;1289;544777;-72
2024/02/25 18:20:42;;;;;;;28.50;18.10;;;;;;;;;;103790;1295;544741;-72
2024/02/25 18:24:19;;;;;;;26.90;16.40;;;;;;;;;;103752;1290;545484;-71
2024/02/25 18:27:57;;;;;;;24.00;14.90;;;;;;;;;;103776;1290;544794;-71
2024/02/25 18:31:54;;;;;;;23.30;15.10;;;;;;;;;;103737;1302;546091;-71
2024/02/25 18:35:10;;;;;;;24.40;15.40;;;;;;;;;;104236;1285;544767;-71
2024/02/25 18:38:49;;;;;;;28.40;17.70;;;;;;;;;;103643;1291;545404;-71
2024/02/25 18:42:28;;;;;;;31.50;20.20;;;;;;;;;;103836;1292;545037;-72
2024/02/25 18:46:05;;;;;;;33.80;20.20;;;;;;;;;;103958;1289;544769;-71
2024/02/25 18:49:42;;;;;;;28.60;18.70;;;;;;;;;;103594;1292;545933;-71
2024/02/25 18:53:18;;;;;;;29.90;18.40;;;;;;;;;;103817;1290;545054;-71
2024/02/25 18:56:57;;;;;;;34.30;20.50;;;;;;;;;;103844;1295;545653;-71
2024/02/25 19:00:34;;;;;;;36.60;21.30;;;;;;;;;;103650;1291;544722;-71
2024/02/25 19:04:11;;;;;;;33.90;20.50;;;;;;;;;;104147;1285;545060;-72
2024/02/25 19:07:49;;;;;;;33.70;21.70;;;;;;;;;;103824;1289;547116;-72
2024/02/25 19:11:23;;;;;;;32.50;21.50;;;;;;;;;;103758;1301;544969;-72
2024/02/25 19:15:03;;;;;;;37.00;23.80;;;;;;;;;;103677;1291;545002;-72
2024/02/25 19:18:42;;;;;;;41.80;26.90;;;;;;;;;;103460;1294;545073;-72
2024/02/25 19:22:18;;;;;;;44.50;29.60;;;;;;;;;;103677;1293;545016;-72
2024/02/25 19:25:57;;;;;;;41.40;28.00;;;;;;;;;;103772;1289;544982;-72
2024/02/25 19:29:33;;;;;;;42.40;27.00;;;;;;;;;;103816;1289;545474;-72
2024/02/25 19:33:14;;;;;;;44.30;27.90;;;;;;;;;;103722;1289;544803;-72
2024/02/25 19:36:51;;;;;;;42.80;28.80;;;;;;;;;;103799;1291;545695;-72
2024/02/25 19:40:26;;;;;;;47.60;32.00;;;;;;;;;;103850;1294;545159;-72
2024/02/25 19:44:03;;;;;;;55.40;32.50;;;;;;;;;;103811;1292;545799;-72
2024/02/25 19:47:41;;;;;;;57.60;36.80;;;;;;;;;;103794;1289;544449;-72
2024/02/25 19:51:18;;;;;;;75.10;44.70;;;;;;;;;;103678;1294;544850;-72
2024/02/25 19:54:58;;;;;;;88.20;47.20;;;;;;;;;;103814;1289;544781;-71
2024/02/25 19:58:34;;;;;;;110.70;54.90;;;;;;;;;;103770;1292;545162;-72
2024/02/25 20:02:11;;;;;;;95.50;53.10;;;;;;;;;;103819;1292;545741;-71
2024/02/25 20:05:50;;;;;;;103.00;56.20;;;;;;;;;;103714;1289;544927;-71
2024/02/25 20:09:26;;;;;;;105.30;55.00;;;;;;;;;;103655;1291;544812;-72
2024/02/25 20:13:05;;;;;;;79.50;45.20;;;;;;;;;;104059;1292;545796;-72
2024/02/25 20:16:43;;;;;;;85.80;44.50;;;;;;;;;;103771;1294;545572;-71
2024/02/25 20:20:18;;;;;;;207.00;87.10;;;;;;;;;;103678;1291;546058;-72
2024/02/25 20:23:56;;;;;;;218.10;91.50;;;;;;;;;;103781;1295;546546;-72
2024/02/25 20:27:33;;;;;;;199.20;81.40;;;;;;;;;;103811;1289;545265;-72
2024/02/25 20:31:11;;;;;;;206.40;81.80;;;;;;;;;;103822;1289;545677;-72
2024/02/25 20:34:50;;;;;;;183.10;77.30;;;;;;;;;;104412;1283;544957;-72
2024/02/25 20:38:25;;;;;;;191.90;83.10;;;;;;;;;;103816;1289;544758;-72